Oxford, Wisconsin
Current Conditions -  °F | °C
As of 12:30 PM on Saturday 20 Dec 2014 (Local Time) from KDLL Reporting Station
Overcast Overcast  
Wind Chill: 23°   Ceiling: 1900
Heat Index: 29°   Visibility: 7mi
Dew Point: 25°   Wind: 6mph
Humidity: 83%   Direction: 140°SE
Pressure: 30.21"   Gusts: NA
Location:  43.78°N, 89.57°W
Report Text: KDLL 201830Z AUTO 14005KT 7SM OVC019 M01/M04 A3021 RMK AO2 T10151041
Loading
Personal Weather Stations






























Interactive Weather Map New forecast layout! Learn more

10-Day Weather Forecast

Advertisements
Track Severe Weather on mobile